createdAt,value
2018-09-17T00:00:38.959Z,1014.43
2018-09-17T00:01:47.604Z,1014.37
2018-09-17T00:02:56.243Z,1014.37
2018-09-17T00:04:04.884Z,1014.34
2018-09-17T00:05:13.528Z,1014.3
2018-09-17T00:06:22.174Z,1014.31
2018-09-17T00:07:30.812Z,1014.29
2018-09-17T00:08:39.458Z,1014.28
2018-09-17T00:09:48.102Z,1014.29
2018-09-17T00:10:56.747Z,1014.26
2018-09-17T00:12:05.386Z,1014.27
2018-09-17T00:13:14.031Z,1014.28
2018-09-17T00:14:22.673Z,1014.3
2018-09-17T00:15:31.322Z,1014.31
2018-09-17T00:16:40.229Z,1014.33
2018-09-17T00:17:48.872Z,1014.31
2018-09-17T00:18:57.517Z,1014.32
2018-09-17T00:20:06.420Z,1014.36
2018-09-17T00:21:15.071Z,1014.37
2018-09-17T00:22:23.707Z,1014.4
2018-09-17T00:23:32.354Z,1014.4
2018-09-17T00:24:40.987Z,1014.42
2018-09-17T00:25:49.639Z,1014.4
2018-09-17T00:26:58.279Z,1014.37
2018-09-17T00:28:06.928Z,1014.35
2018-09-17T00:29:15.558Z,1014.37
2018-09-17T00:30:24.211Z,1014.35
2018-09-17T00:31:32.850Z,1014.36
2018-09-17T00:32:41.496Z,1014.36
2018-09-17T00:33:50.132Z,1014.34
2018-09-17T00:34:58.775Z,1014.32
2018-09-17T00:36:07.421Z,1014.36
2018-09-17T00:37:16.067Z,1014.34
2018-09-17T00:38:24.713Z,1014.35
2018-09-17T00:39:33.346Z,1014.35
2018-09-17T00:40:42.258Z,1014.35
2018-09-17T00:41:50.894Z,1014.32
2018-09-17T00:42:59.811Z,1014.3
2018-09-17T00:44:08.447Z,1014.29
2018-09-17T00:45:17.099Z,1014.31
2018-09-17T00:46:26.260Z,1014.29
2018-09-17T00:47:34.912Z,1014.27
2018-09-17T00:48:43.547Z,1014.26
2018-09-17T00:49:52.191Z,1014.28
2018-09-17T00:51:00.831Z,1014.26
2018-09-17T00:52:09.481Z,1014.27
2018-09-17T00:53:18.392Z,1014.25
2018-09-17T00:54:27.298Z,1014.26
2018-09-17T00:55:36.200Z,1014.26
2018-09-17T00:56:45.107Z,1014.26
2018-09-17T00:57:53.864Z,1014.22
2018-09-17T00:59:02.395Z,1014.19
2018-09-17T01:00:11.041Z,1014.2
2018-09-17T01:01:19.674Z,1014.17
2018-09-17T01:02:28.328Z,1014.23
2018-09-17T01:03:37.233Z,1014.17
2018-09-17T01:04:45.882Z,1014.17
2018-09-17T01:05:54.521Z,1014.19
2018-09-17T01:07:03.167Z,1014.17
2018-09-17T01:08:11.809Z,1014.19
2018-09-17T01:09:20.452Z,1014.14
2018-09-17T01:10:29.085Z,1014.17
2018-09-17T01:11:37.730Z,1014.14
2018-09-17T01:12:46.379Z,1014.12
2018-09-17T01:13:55.022Z,1014.15
2018-09-17T01:15:03.930Z,1014.16
2018-09-17T01:16:12.831Z,1014.13
2018-09-17T01:17:21.479Z,1014.15
2018-09-17T01:18:30.116Z,1014.13
2018-09-17T01:19:38.767Z,1014.17
2018-09-17T01:20:47.667Z,1014.17
2018-09-17T01:21:56.306Z,1014.17
2018-09-17T01:23:04.952Z,1014.15
2018-09-17T01:24:13.580Z,1014.17
2018-09-17T01:25:22.231Z,1014.17
2018-09-17T01:26:30.872Z,1014.21
2018-09-17T01:27:39.519Z,1014.2
2018-09-17T01:28:48.151Z,1014.2
2018-09-17T01:29:56.799Z,1014.17
2018-09-17T01:31:05.446Z,1014.12
2018-09-17T01:32:14.092Z,1014.07
2018-09-17T01:33:22.735Z,1014.02
2018-09-17T01:34:31.373Z,1014.02
2018-09-17T01:35:40.040Z,1013.98
2018-09-17T01:36:48.914Z,1013.95
2018-09-17T01:37:57.564Z,1013.89
2018-09-17T01:39:06.465Z,1013.89
2018-09-17T01:40:15.110Z,1013.87
2018-09-17T01:41:23.752Z,1013.85
2018-09-17T01:42:32.400Z,1013.87
2018-09-17T01:43:41.038Z,1013.86
2018-09-17T01:44:49.958Z,1013.92
2018-09-17T01:45:58.864Z,1013.9
2018-09-17T01:47:07.788Z,1013.88
2018-09-17T01:48:16.429Z,1013.85
2018-09-17T01:49:25.071Z,1013.8
2018-09-17T01:50:33.983Z,1013.82
2018-09-17T01:51:42.623Z,1013.82
2018-09-17T01:52:51.274Z,1013.79
2018-09-17T01:54:00.171Z,1013.8
2018-09-17T01:55:08.819Z,1013.76
2018-09-17T01:56:17.455Z,1013.79
2018-09-17T01:57:26.107Z,1013.8
2018-09-17T01:58:34.744Z,1013.8
2018-09-17T01:59:43.391Z,1013.83
2018-09-17T02:00:52.285Z,1013.8
2018-09-17T02:02:00.936Z,1013.81
2018-09-17T02:03:09.576Z,1013.83
2018-09-17T02:04:18.222Z,1013.84
2018-09-17T02:05:26.859Z,1013.78
2018-09-17T02:06:35.501Z,1013.8
2018-09-17T02:07:44.149Z,1013.78
2018-09-17T02:08:52.875Z,1013.76
2018-09-17T02:10:01.455Z,1013.8
2018-09-17T02:11:10.436Z,1013.78
2018-09-17T02:12:19.349Z,1013.79
2018-09-17T02:13:28.265Z,1013.82
2018-09-17T02:14:37.436Z,1013.81
2018-09-17T02:15:46.071Z,1013.83
2018-09-17T02:16:54.718Z,1013.83
2018-09-17T02:18:03.356Z,1013.83
2018-09-17T02:19:12.011Z,1013.87
2018-09-17T02:20:20.641Z,1013.93
2018-09-17T02:21:29.285Z,1013.92
2018-09-17T02:22:37.927Z,1013.95
2018-09-17T02:23:46.576Z,1013.97
2018-09-17T02:24:55.257Z,1013.99
2018-09-17T02:26:04.120Z,1014
2018-09-17T02:27:12.759Z,1013.97
2018-09-17T02:28:21.398Z,1014.02
2018-09-17T02:29:30.045Z,1014.06
2018-09-17T02:30:38.685Z,1014.08
2018-09-17T02:31:47.332Z,1014.1
2018-09-17T02:32:55.971Z,1014.12
2018-09-17T02:34:04.619Z,1014.16
2018-09-17T02:35:13.264Z,1014.16
2018-09-17T02:36:21.907Z,1014.17
2018-09-17T02:37:30.555Z,1014.16
2018-09-17T02:38:39.192Z,1014.15
2018-09-17T02:39:47.832Z,1014.15
2018-09-17T02:40:56.480Z,1014.13
2018-09-17T02:42:05.382Z,1014.13
2018-09-17T02:43:14.030Z,1014.1
2018-09-17T02:44:22.936Z,1014.07
2018-09-17T02:45:31.582Z,1014.08
2018-09-17T02:46:40.225Z,1014.09
2018-09-17T02:47:48.866Z,1014.08
2018-09-17T02:48:58.033Z,1014.12
2018-09-17T02:50:06.946Z,1014.19
2018-09-17T02:51:15.604Z,1014.15
2018-09-17T02:52:24.243Z,1014.19
2018-09-17T02:53:32.913Z,1014.13
2018-09-17T02:54:41.534Z,1014.13
2018-09-17T02:55:50.180Z,1014.1
2018-09-17T02:56:58.817Z,1014.1
2018-09-17T02:58:07.464Z,1014.09
2018-09-17T02:59:16.110Z,1014.13
2018-09-17T03:00:24.761Z,1014.14
2018-09-17T03:01:33.402Z,1014.14
2018-09-17T03:02:42.054Z,1014.13
2018-09-17T03:03:50.696Z,1014.13
2018-09-17T03:04:59.341Z,1014.13
2018-09-17T03:06:07.993Z,1014.08
2018-09-17T03:07:16.629Z,1014.04
2018-09-17T03:08:25.277Z,1014.08
2018-09-17T03:09:33.917Z,1014.12
2018-09-17T03:10:42.826Z,1014.12
2018-09-17T03:11:51.478Z,1014.14
2018-09-17T03:13:00.120Z,1014.12
2018-09-17T03:14:08.767Z,1014.08
2018-09-17T03:15:17.419Z,1014.06
2018-09-17T03:16:26.334Z,1014.11
2018-09-17T03:17:35.244Z,1014.13
2018-09-17T03:18:43.881Z,1014.16
2018-09-17T03:19:52.527Z,1014.16
2018-09-17T03:21:01.180Z,1014.15
2018-09-17T03:22:10.098Z,1014.16
2018-09-17T03:23:18.738Z,1014.14
2018-09-17T03:24:27.376Z,1014.15
2018-09-17T03:25:36.308Z,1014.1
2018-09-17T03:26:44.969Z,1014.05
2018-09-17T03:27:53.887Z,1014.02
2018-09-17T03:29:02.521Z,1014.03
2018-09-17T03:30:11.176Z,1013.99
2018-09-17T03:31:19.825Z,1014
2018-09-17T03:32:28.760Z,1013.99
2018-09-17T03:33:37.673Z,1014.05
2018-09-17T03:34:46.323Z,1014.08
2018-09-17T03:35:55.222Z,1014.1
2018-09-17T03:37:03.875Z,1014.1
2018-09-17T03:38:12.521Z,1014.09
2018-09-17T03:39:21.173Z,1014.1
2018-09-17T03:40:29.806Z,1014.05
2018-09-17T03:41:38.445Z,1014.05
2018-09-17T03:42:47.376Z,1014.04
2018-09-17T03:43:56.020Z,1014.02
2018-09-17T03:45:04.667Z,1014.03
2018-09-17T03:46:13.573Z,1014.01
2018-09-17T03:47:22.215Z,1014.05
2018-09-17T03:48:30.854Z,1014.03
2018-09-17T03:49:39.508Z,1014.06
2018-09-17T03:50:48.138Z,1014.08
2018-09-17T03:51:56.796Z,1014.09
2018-09-17T03:53:05.443Z,1014.06
2018-09-17T03:54:14.081Z,1014.03
2018-09-17T03:55:22.716Z,1014
2018-09-17T03:56:31.359Z,1014
2018-09-17T03:57:40.006Z,1013.97
2018-09-17T03:58:48.651Z,1013.96
2018-09-17T03:59:57.295Z,1014
2018-09-17T04:01:05.932Z,1013.99
2018-09-17T04:02:14.578Z,1014.07
2018-09-17T04:03:23.223Z,1014.11
2018-09-17T04:04:32.146Z,1014.11
2018-09-17T04:05:40.786Z,1014.1
2018-09-17T04:06:49.425Z,1014.12
2018-09-17T04:07:58.066Z,1014.09
2018-09-17T04:09:06.976Z,1014.07
2018-09-17T04:10:15.610Z,1014.06
2018-09-17T04:11:24.255Z,1014.07
2018-09-17T04:12:32.894Z,1014.09
2018-09-17T04:13:41.808Z,1014.07
2018-09-17T04:14:50.455Z,1014.03
2018-09-17T04:15:59.090Z,1014
2018-09-17T04:17:07.734Z,1014.04
2018-09-17T04:18:16.639Z,1014.01
2018-09-17T04:19:25.282Z,1014
2018-09-17T04:20:33.929Z,1014.02
2018-09-17T04:21:42.572Z,1014.01
2018-09-17T04:22:51.209Z,1014.03
2018-09-17T04:24:00.118Z,1014.04
2018-09-17T04:25:09.022Z,1014.06
2018-09-17T04:26:17.765Z,1014.08
2018-09-17T04:27:26.663Z,1014.07
2018-09-17T04:28:35.311Z,1014.07
2018-09-17T04:29:43.948Z,1014.06
2018-09-17T04:30:52.594Z,1014.04
2018-09-17T04:32:01.492Z,1014.01
2018-09-17T04:33:10.180Z,1014.03
2018-09-17T04:34:18.778Z,1014.06
2018-09-17T04:35:27.423Z,1014.09
2018-09-17T04:36:36.072Z,1014.11
2018-09-17T04:37:44.711Z,1014.15
2018-09-17T04:38:53.354Z,1014.16
2018-09-17T04:40:01.994Z,1014.14
2018-09-17T04:41:10.640Z,1014.13
2018-09-17T04:42:19.281Z,1014.17
2018-09-17T04:43:28.195Z,1014.13
2018-09-17T04:44:36.838Z,1014.15
2018-09-17T04:45:45.485Z,1014.18
2018-09-17T04:46:54.385Z,1014.17
2018-09-17T04:48:03.029Z,1014.19
2018-09-17T04:49:11.668Z,1014.18
2018-09-17T04:50:20.317Z,1014.18
2018-09-17T04:51:28.958Z,1014.13
2018-09-17T04:52:37.599Z,1014.15
2018-09-17T04:53:46.235Z,1014.16
2018-09-17T04:54:54.876Z,1014.15
2018-09-17T04:56:03.518Z,1014.2
2018-09-17T04:57:12.171Z,1014.19
2018-09-17T04:58:20.806Z,1014.2
2018-09-17T04:59:29.709Z,1014.21
2018-09-17T05:00:38.354Z,1014.18
2018-09-17T05:01:46.996Z,1014.22
2018-09-17T05:02:55.900Z,1014.23
2018-09-17T05:04:04.801Z,1014.23
2018-09-17T05:05:13.447Z,1014.26
2018-09-17T05:06:22.089Z,1014.3
2018-09-17T05:07:30.995Z,1014.31
2018-09-17T05:08:39.635Z,1014.33
2018-09-17T05:09:48.278Z,1014.36
2018-09-17T05:10:56.926Z,1014.38
2018-09-17T05:12:05.571Z,1014.36
2018-09-17T05:13:14.380Z,1014.39
2018-09-17T05:14:23.388Z,1014.41
2018-09-17T05:15:32.034Z,1014.39
2018-09-17T05:16:40.942Z,1014.41
2018-09-17T05:17:50.015Z,1014.36
2018-09-17T05:18:58.924Z,1014.35
2018-09-17T05:20:07.827Z,1014.35
2018-09-17T05:21:16.473Z,1014.37
2018-09-17T05:22:25.106Z,1014.4
2018-09-17T05:23:33.752Z,1014.37
2018-09-17T05:24:42.395Z,1014.4
2018-09-17T05:25:51.039Z,1014.4
2018-09-17T05:26:59.680Z,1014.37
2018-09-17T05:28:08.320Z,1014.41
2018-09-17T05:29:17.236Z,1014.38
2018-09-17T05:30:25.880Z,1014.39
2018-09-17T05:31:34.791Z,1014.39
2018-09-17T05:32:43.429Z,1014.37
2018-09-17T05:33:52.071Z,1014.39
2018-09-17T05:35:00.743Z,1014.4
2018-09-17T05:36:09.753Z,1014.39
2018-09-17T05:37:18.653Z,1014.41
2018-09-17T05:38:27.563Z,1014.4
2018-09-17T05:39:36.206Z,1014.37
2018-09-17T05:40:44.855Z,1014.39
2018-09-17T05:41:53.495Z,1014.39
2018-09-17T05:43:02.142Z,1014.37
2018-09-17T05:44:10.782Z,1014.37
2018-09-17T05:45:19.719Z,1014.4
2018-09-17T05:46:28.352Z,1014.41
2018-09-17T05:47:37.000Z,1014.48
2018-09-17T05:48:45.639Z,1014.45
2018-09-17T05:49:54.943Z,1014.49
2018-09-17T05:51:03.590Z,1014.45
2018-09-17T05:52:12.232Z,1014.48
2018-09-17T05:53:20.875Z,1014.48
2018-09-17T05:54:29.514Z,1014.49
2018-09-17T05:55:38.161Z,1014.49
2018-09-17T05:56:47.065Z,1014.51
2018-09-17T05:57:55.710Z,1014.53
2018-09-17T05:59:04.348Z,1014.56
2018-09-17T06:00:12.994Z,1014.56
2018-09-17T06:01:21.633Z,1014.55
2018-09-17T06:02:30.277Z,1014.54
2018-09-17T06:03:38.915Z,1014.55
2018-09-17T06:04:47.558Z,1014.57
2018-09-17T06:05:56.240Z,1014.58
2018-09-17T06:07:04.869Z,1014.6
2018-09-17T06:08:13.490Z,1014.61
2018-09-17T06:09:22.129Z,1014.63
2018-09-17T06:10:30.770Z,1014.63
2018-09-17T06:11:39.455Z,1014.64
2018-09-17T06:12:48.401Z,1014.68
2018-09-17T06:13:57.042Z,1014.72
2018-09-17T06:15:05.691Z,1014.74
2018-09-17T06:16:14.332Z,1014.76
2018-09-17T06:17:23.017Z,1014.78
2018-09-17T06:18:32.306Z,1014.78
2018-09-17T06:19:40.955Z,1014.76
2018-09-17T06:20:49.857Z,1014.74
2018-09-17T06:21:58.510Z,1014.79
2018-09-17T06:23:07.192Z,1014.79
2018-09-17T06:24:15.789Z,1014.78
2018-09-17T06:25:24.429Z,1014.77
2018-09-17T06:26:33.091Z,1014.81
2018-09-17T06:27:41.721Z,1014.8
2018-09-17T06:28:50.698Z,1014.8
2018-09-17T06:29:59.658Z,1014.79
2018-09-17T06:31:08.545Z,1014.83
2018-09-17T06:32:17.198Z,1014.86
2018-09-17T06:33:25.835Z,1014.85
2018-09-17T06:34:34.488Z,1014.88
2018-09-17T06:35:43.117Z,1014.9
2018-09-17T06:36:51.768Z,1014.92
2018-09-17T06:38:00.406Z,1014.9
2018-09-17T06:39:09.052Z,1014.91
2018-09-17T06:40:17.685Z,1014.93
2018-09-17T06:41:26.351Z,1014.93
2018-09-17T06:42:35.357Z,1014.92
2018-09-17T06:43:43.996Z,1014.92
2018-09-17T06:44:52.676Z,1014.94
2018-09-17T06:46:01.275Z,1014.94
2018-09-17T06:47:09.921Z,1014.96
2018-09-17T06:48:18.838Z,1014.95
2018-09-17T06:49:27.488Z,1014.93
2018-09-17T06:50:36.123Z,1014.94
2018-09-17T06:51:44.774Z,1014.97
2018-09-17T06:52:53.669Z,1014.94
2018-09-17T06:54:02.325Z,1014.93
2018-09-17T06:55:11.224Z,1014.95
2018-09-17T06:56:19.870Z,1014.95
2018-09-17T06:57:28.513Z,1014.95
2018-09-17T06:58:37.170Z,1014.98
2018-09-17T06:59:45.811Z,1014.93
2018-09-17T07:00:54.451Z,1014.94
2018-09-17T07:02:03.097Z,1014.93
2018-09-17T07:03:11.738Z,1014.89
2018-09-17T07:04:20.911Z,1014.92
2018-09-17T07:05:29.550Z,1014.92
2018-09-17T07:06:38.466Z,1014.9
2018-09-17T07:07:47.103Z,1014.9
2018-09-17T07:08:55.764Z,1014.89
2018-09-17T07:10:04.402Z,1014.9
2018-09-17T07:11:13.049Z,1014.85
2018-09-17T07:12:21.689Z,1014.84
2018-09-17T07:13:30.343Z,1014.8
2018-09-17T07:14:38.985Z,1014.86
2018-09-17T07:15:48.159Z,1014.8
2018-09-17T07:16:56.793Z,1014.82
2018-09-17T07:18:05.475Z,1014.85
2018-09-17T07:19:14.094Z,1014.82
2018-09-17T07:20:23.003Z,1014.81
2018-09-17T07:21:31.648Z,1014.83
2018-09-17T07:22:40.288Z,1014.83
2018-09-17T07:23:48.935Z,1014.83
2018-09-17T07:24:57.573Z,1014.76
2018-09-17T07:26:06.224Z,1014.78
2018-09-17T07:27:14.858Z,1014.77
2018-09-17T07:28:23.769Z,1014.76
2018-09-17T07:29:32.411Z,1014.76
2018-09-17T07:30:41.062Z,1014.8
2018-09-17T07:31:49.695Z,1014.79
2018-09-17T07:32:58.342Z,1014.78
2018-09-17T07:34:06.981Z,1014.77
2018-09-17T07:35:15.634Z,1014.78
2018-09-17T07:36:24.638Z,1014.75
2018-09-17T07:37:33.182Z,1014.8
2018-09-17T07:38:41.827Z,1014.81
2018-09-17T07:39:50.473Z,1014.82
2018-09-17T07:40:59.126Z,1014.86
2018-09-17T07:42:07.832Z,1014.83
2018-09-17T07:43:16.413Z,1014.85
2018-09-17T07:44:25.056Z,1014.87
2018-09-17T07:45:33.707Z,1014.86
2018-09-17T07:46:42.355Z,1014.83
2018-09-17T07:47:51.040Z,1014.86
2018-09-17T07:48:59.645Z,1014.83
2018-09-17T07:50:08.295Z,1014.83
2018-09-17T07:51:16.937Z,1014.84
2018-09-17T07:52:25.585Z,1014.87
2018-09-17T07:53:34.229Z,1014.84
2018-09-17T07:54:42.875Z,1014.82
2018-09-17T07:55:51.526Z,1014.83
2018-09-17T07:57:00.174Z,1014.83
2018-09-17T07:58:08.823Z,1014.78
2018-09-17T07:59:17.459Z,1014.8
2018-09-17T08:00:26.108Z,1014.78
2018-09-17T08:01:34.750Z,1014.79
2018-09-17T08:02:43.404Z,1014.79
2018-09-17T08:03:52.305Z,1014.78
2018-09-17T08:05:00.953Z,1014.77
2018-09-17T08:06:09.594Z,1014.77
2018-09-17T08:07:18.252Z,1014.78
2018-09-17T08:08:26.884Z,1014.77
2018-09-17T08:09:35.534Z,1014.78
2018-09-17T08:10:44.179Z,1014.79
2018-09-17T08:11:52.828Z,1014.79
2018-09-17T08:13:01.473Z,1014.8
2018-09-17T08:14:10.117Z,1014.82
2018-09-17T08:15:18.760Z,1014.82
2018-09-17T08:16:27.406Z,1014.82
2018-09-17T08:17:36.058Z,1014.81
2018-09-17T08:18:44.703Z,1014.81
2018-09-17T08:19:53.353Z,1014.77
2018-09-17T08:21:01.999Z,1014.74
2018-09-17T08:22:10.906Z,1014.73
2018-09-17T08:23:19.553Z,1014.74
2018-09-17T08:24:28.262Z,1014.73
2018-09-17T08:25:36.847Z,1014.75
2018-09-17T08:26:45.492Z,1014.78
2018-09-17T08:27:54.396Z,1014.82
2018-09-17T08:29:03.044Z,1014.82
2018-09-17T08:30:11.686Z,1014.86
2018-09-17T08:31:20.393Z,1014.85
2018-09-17T08:32:28.981Z,1014.87
2018-09-17T08:33:37.896Z,1014.86
2018-09-17T08:34:46.542Z,1014.88
2018-09-17T08:35:55.184Z,1014.87
2018-09-17T08:37:04.095Z,1014.9
2018-09-17T08:38:12.799Z,1014.91
2018-09-17T08:39:21.398Z,1014.91
2018-09-17T08:40:30.033Z,1014.87
2018-09-17T08:41:38.678Z,1014.93
2018-09-17T08:42:47.328Z,1014.92
2018-09-17T08:43:55.972Z,1014.96
2018-09-17T08:45:04.612Z,1014.94
2018-09-17T08:46:13.261Z,1014.93
2018-09-17T08:47:21.904Z,1014.97
2018-09-17T08:48:30.562Z,1014.97
2018-09-17T08:49:39.204Z,1014.96
2018-09-17T08:50:48.118Z,1014.97
2018-09-17T08:51:56.762Z,1014.97
2018-09-17T08:53:05.452Z,1014.96
2018-09-17T08:54:14.062Z,1014.96
2018-09-17T08:55:22.706Z,1014.92
2018-09-17T08:56:31.353Z,1014.91
2018-09-17T08:57:39.995Z,1014.85
2018-09-17T08:58:48.645Z,1014.88
2018-09-17T08:59:57.290Z,1014.89
2018-09-17T09:01:05.938Z,1014.92
2018-09-17T09:02:14.577Z,1014.91
2018-09-17T09:03:23.227Z,1014.93
2018-09-17T09:04:31.871Z,1014.97
2018-09-17T09:05:40.533Z,1014.98
2018-09-17T09:06:49.163Z,1014.94
2018-09-17T09:07:57.807Z,1014.95
2018-09-17T09:09:06.455Z,1014.95
2018-09-17T09:10:15.102Z,1014.91
2018-09-17T09:11:23.744Z,1014.93
2018-09-17T09:12:32.396Z,1014.92
2018-09-17T09:13:41.045Z,1014.87
2018-09-17T09:14:49.689Z,1014.89
2018-09-17T09:15:58.336Z,1014.86
2018-09-17T09:17:06.991Z,1014.86
2018-09-17T09:18:15.897Z,1014.86
2018-09-17T09:19:24.545Z,1014.86
2018-09-17T09:20:33.194Z,1014.84
2018-09-17T09:21:42.105Z,1014.84
2018-09-17T09:22:51.012Z,1014.83
2018-09-17T09:23:59.662Z,1014.81
2018-09-17T09:25:08.303Z,1014.81
2018-09-17T09:26:16.997Z,1014.82
2018-09-17T09:27:26.044Z,1014.79
2018-09-17T09:28:34.958Z,1014.77
2018-09-17T09:29:43.876Z,1014.84
2018-09-17T09:30:52.593Z,1014.79
2018-09-17T09:32:01.517Z,1014.81
2018-09-17T09:33:10.162Z,1014.82
2018-09-17T09:34:18.812Z,1014.8
2018-09-17T09:35:27.456Z,1014.81
2018-09-17T09:36:36.103Z,1014.79
2018-09-17T09:37:44.751Z,1014.78
2018-09-17T09:38:53.671Z,1014.75
2018-09-17T09:40:02.433Z,1014.78
2018-09-17T09:41:11.082Z,1014.75
2018-09-17T09:42:19.724Z,1014.77
2018-09-17T09:43:28.374Z,1014.73
2018-09-17T09:44:37.020Z,1014.76
2018-09-17T09:45:45.667Z,1014.75
2018-09-17T09:46:54.312Z,1014.73
2018-09-17T09:48:02.958Z,1014.73
2018-09-17T09:49:11.873Z,1014.78
2018-09-17T09:50:20.534Z,1014.76
2018-09-17T09:51:29.450Z,1014.75
2018-09-17T09:52:38.351Z,1014.72
2018-09-17T09:53:47.000Z,1014.72
2018-09-17T09:54:55.647Z,1014.75
2018-09-17T09:56:04.294Z,1014.74
2018-09-17T09:57:12.940Z,1014.74
2018-09-17T09:58:21.592Z,1014.79
2018-09-17T09:59:30.239Z,1014.82
2018-09-17T10:00:38.885Z,1014.78
2018-09-17T10:01:47.531Z,1014.74
2018-09-17T10:02:56.180Z,1014.75
2018-09-17T10:04:04.827Z,1014.72
2018-09-17T10:05:13.477Z,1014.75
2018-09-17T10:06:22.391Z,1014.7
2018-09-17T10:07:31.035Z,1014.71
2018-09-17T10:08:39.685Z,1014.69
2018-09-17T10:09:48.594Z,1014.67
2018-09-17T10:10:57.253Z,1014.63
2018-09-17T10:12:05.893Z,1014.63
2018-09-17T10:13:14.548Z,1014.65
2018-09-17T10:14:23.191Z,1014.61
2018-09-17T10:15:31.846Z,1014.58
2018-09-17T10:16:40.486Z,1014.56
2018-09-17T10:17:49.134Z,1014.57
2018-09-17T10:18:57.781Z,1014.55
2018-09-17T10:20:06.442Z,1014.6
2018-09-17T10:21:15.089Z,1014.54
2018-09-17T10:22:23.734Z,1014.53
2018-09-17T10:23:32.380Z,1014.56
2018-09-17T10:24:41.024Z,1014.57
2018-09-17T10:25:49.680Z,1014.51
2018-09-17T10:26:58.325Z,1014.53
2018-09-17T10:28:06.977Z,1014.54
2018-09-17T10:29:15.619Z,1014.52
2018-09-17T10:30:24.278Z,1014.5
2018-09-17T10:31:33.032Z,1014.45
2018-09-17T10:32:41.686Z,1014.41
2018-09-17T10:33:50.328Z,1014.47
2018-09-17T10:34:59.246Z,1014.46
2018-09-17T10:36:07.894Z,1014.42
2018-09-17T10:37:16.545Z,1014.38
2018-09-17T10:38:25.182Z,1014.43
2018-09-17T10:39:33.881Z,1014.42
2018-09-17T10:40:42.492Z,1014.39
2018-09-17T10:41:51.146Z,1014.39
2018-09-17T10:43:00.059Z,1014.36
2018-09-17T10:44:08.700Z,1014.36
2018-09-17T10:45:17.363Z,1014.36
2018-09-17T10:46:26.006Z,1014.3
2018-09-17T10:47:34.665Z,1014.31
2018-09-17T10:48:43.314Z,1014.29
2018-09-17T10:49:52.230Z,1014.28
2018-09-17T10:51:00.874Z,1014.31
2018-09-17T10:52:09.533Z,1014.27
2018-09-17T10:53:18.436Z,1014.29
2018-09-17T10:54:27.089Z,1014.3
2018-09-17T10:55:35.730Z,1014.24
2018-09-17T10:56:44.388Z,1014.24
2018-09-17T10:57:53.035Z,1014.31
2018-09-17T10:59:01.685Z,1014.26
2018-09-17T11:00:10.594Z,1014.3
2018-09-17T11:01:19.242Z,1014.28
2018-09-17T11:02:27.900Z,1014.25
2018-09-17T11:03:36.547Z,1014.23
2018-09-17T11:04:45.199Z,1014.25
2018-09-17T11:05:53.840Z,1014.19
2018-09-17T11:07:02.496Z,1014.13
2018-09-17T11:08:11.170Z,1014.15
2018-09-17T11:09:19.802Z,1014.16
2018-09-17T11:10:28.442Z,1014.14
2018-09-17T11:11:37.096Z,1014.11
2018-09-17T11:12:45.743Z,1014.1
2018-09-17T11:13:54.395Z,1014.08
2018-09-17T11:15:03.040Z,1014.12
2018-09-17T11:16:11.959Z,1014.09
2018-09-17T11:17:21.014Z,1014.16
2018-09-17T11:18:29.529Z,1014.12
2018-09-17T11:19:38.209Z,1014.1
2018-09-17T11:20:46.895Z,1014.09
2018-09-17T11:21:55.817Z,1014.11
2018-09-17T11:23:04.885Z,1014.09
2018-09-17T11:24:13.539Z,1014.07
2018-09-17T11:25:22.195Z,1014.05
2018-09-17T11:26:30.844Z,1014.02
2018-09-17T11:27:39.498Z,1014.03
2018-09-17T11:28:48.376Z,1014.05
2018-09-17T11:29:57.022Z,1014.07
2018-09-17T11:31:05.939Z,1014.03
2018-09-17T11:32:15.170Z,1014.04
2018-09-17T11:33:23.824Z,1014.07
2018-09-17T11:34:32.473Z,1014.04
2018-09-17T11:35:41.131Z,1014.06
2018-09-17T11:36:49.781Z,1014.05
2018-09-17T11:37:58.436Z,1014.03
2018-09-17T11:39:07.354Z,1014.01
2018-09-17T11:40:16.005Z,1014.01
2018-09-17T11:41:24.944Z,1013.94
2018-09-17T11:42:33.591Z,1014.02
2018-09-17T11:43:42.248Z,1013.97
2018-09-17T11:44:50.899Z,1013.94
2018-09-17T11:45:59.549Z,1014
2018-09-17T11:47:08.195Z,1013.95
2018-09-17T11:48:16.931Z,1013.92
2018-09-17T11:49:25.534Z,1013.95
2018-09-17T11:50:34.186Z,1013.93
2018-09-17T11:51:42.835Z,1013.91
2018-09-17T11:52:51.487Z,1013.91
2018-09-17T11:54:00.149Z,1013.88
2018-09-17T11:55:09.169Z,1013.88
2018-09-17T11:56:18.084Z,1013.87
2018-09-17T11:57:26.731Z,1013.87
2018-09-17T11:58:35.383Z,1013.88
2018-09-17T11:59:44.034Z,1013.86
2018-09-17T12:00:52.694Z,1013.89
2018-09-17T12:02:01.342Z,1013.86
2018-09-17T12:03:10.291Z,1013.87
2018-09-17T12:04:18.946Z,1013.85
2018-09-17T12:05:27.599Z,1013.85
2018-09-17T12:06:36.243Z,1013.88
2018-09-17T12:07:44.917Z,1013.85
2018-09-17T12:08:53.541Z,1013.77
2018-09-17T12:10:02.199Z,1013.81
2018-09-17T12:11:10.848Z,1013.76
2018-09-17T12:12:19.757Z,1013.78
2018-09-17T12:13:28.406Z,1013.82
2018-09-17T12:14:37.054Z,1013.78
2018-09-17T12:15:45.982Z,1013.71
2018-09-17T12:16:54.625Z,1013.73
2018-09-17T12:18:03.281Z,1013.68
2018-09-17T12:19:11.922Z,1013.67
2018-09-17T12:20:20.583Z,1013.69
2018-09-17T12:21:29.229Z,1013.7
2018-09-17T12:22:37.885Z,1013.65
2018-09-17T12:23:46.528Z,1013.65
2018-09-17T12:24:55.450Z,1013.63
2018-09-17T12:26:04.119Z,1013.66
2018-09-17T12:27:12.771Z,1013.6
2018-09-17T12:28:21.412Z,1013.55
2018-09-17T12:29:30.063Z,1013.56
2018-09-17T12:30:38.718Z,1013.55
2018-09-17T12:31:47.373Z,1013.53
2018-09-17T12:32:56.026Z,1013.52
2018-09-17T12:34:04.681Z,1013.53
2018-09-17T12:35:13.337Z,1013.53
2018-09-17T12:36:21.986Z,1013.48
2018-09-17T12:37:30.650Z,1013.51
2018-09-17T12:38:39.295Z,1013.46
2018-09-17T12:39:47.948Z,1013.42
2018-09-17T12:40:56.863Z,1013.41
2018-09-17T12:42:05.522Z,1013.43
2018-09-17T12:43:14.164Z,1013.39
2018-09-17T12:44:22.814Z,1013.4
2018-09-17T12:45:31.466Z,1013.33
2018-09-17T12:46:40.129Z,1013.37
2018-09-17T12:47:48.775Z,1013.36
2018-09-17T12:48:57.469Z,1013.33
2018-09-17T12:50:06.381Z,1013.28
2018-09-17T12:51:15.057Z,1013.28
2018-09-17T12:52:23.691Z,1013.29
2018-09-17T12:53:32.339Z,1013.23
2018-09-17T12:54:40.992Z,1013.24
2018-09-17T12:55:49.634Z,1013.25
2018-09-17T12:56:58.319Z,1013.25
2018-09-17T12:58:07.449Z,1013.27
2018-09-17T12:59:16.246Z,1013.22
2018-09-17T13:00:25.053Z,1013.25
2018-09-17T13:01:33.713Z,1013.2
2018-09-17T13:02:42.390Z,1013.21
2018-09-17T13:03:51.070Z,1013.22
2018-09-17T13:05:00.281Z,1013.21
2018-09-17T13:06:09.026Z,1013.21
2018-09-17T13:07:17.670Z,1013.16
2018-09-17T13:08:26.319Z,1013.18
2018-09-17T13:09:34.967Z,1013.15
2018-09-17T13:10:43.898Z,1013.14
2018-09-17T13:11:52.545Z,1013.11
2018-09-17T13:13:01.200Z,1013.13
2018-09-17T13:14:09.843Z,1013.16
2018-09-17T13:15:18.504Z,1013.11
2018-09-17T13:16:27.152Z,1013.11
2018-09-17T13:17:35.802Z,1013.13
2018-09-17T13:18:44.443Z,1013.12
2018-09-17T13:19:53.633Z,1013.09
2018-09-17T13:21:02.281Z,1013.12
2018-09-17T13:22:11.202Z,1013.09
2018-09-17T13:23:19.844Z,1013.05
2018-09-17T13:24:28.497Z,1013.06
2018-09-17T13:25:37.154Z,1013.05
2018-09-17T13:26:45.806Z,1013.06
2018-09-17T13:27:54.569Z,1013.04
2018-09-17T13:29:03.520Z,1013.02
2018-09-17T13:30:12.174Z,1013
2018-09-17T13:31:20.821Z,1013.01
2018-09-17T13:32:29.483Z,1013.02
2018-09-17T13:33:38.124Z,1013.04
2018-09-17T13:34:46.779Z,1013.02
2018-09-17T13:35:55.423Z,1013.01
2018-09-17T13:37:04.350Z,1012.98
2018-09-17T13:38:12.996Z,1012.99
2018-09-17T13:39:21.649Z,1012.97
2018-09-17T13:40:30.298Z,1012.94
2018-09-17T13:41:38.959Z,1012.92
2018-09-17T13:42:47.619Z,1012.91
2018-09-17T13:43:56.526Z,1012.91
2018-09-17T13:45:05.202Z,1012.9
2018-09-17T13:46:13.827Z,1012.91
2018-09-17T13:47:22.477Z,1012.93
2018-09-17T13:48:31.144Z,1012.91
2018-09-17T13:49:40.085Z,1012.86
2018-09-17T13:50:48.999Z,1012.87
2018-09-17T13:51:57.652Z,1012.86
2018-09-17T13:53:06.679Z,1012.86
2018-09-17T13:54:15.883Z,1012.85